sensor_id;sensor_type;location;lat;lon;timestamp;temperature;humidity
10826;DHT22;5466;55.898;14.094;2023-12-07T00:00:34;0.00;99.90
10826;DHT22;5466;55.898;14.094;2023-12-07T00:02:35;0.00;99.90
10826;DHT22;5466;55.898;14.094;2023-12-07T00:04:35;0.00;99.90
10826;DHT22;5466;55.898;14.094;2023-12-07T00:06:36;0.00;99.90
10826;DHT22;5466;55.898;14.094;2023-12-07T00:08:37;0.00;99.90
10826;DHT22;5466;55.898;14.094;2023-12-07T00:10:37;0.00;99.90
10826;DHT22;5466;55.898;14.094;2023-12-07T00:12:38;0.00;99.90
10826;DHT22;5466;55.898;14.094;2023-12-07T00:14:38;0.00;99.90
10826;DHT22;5466;55.898;14.094;2023-12-07T00:16:39;-0.10;99.90
10826;DHT22;5466;55.898;14.094;2023-12-07T00:18:40;-0.10;99.90
10826;DHT22;5466;55.898;14.094;2023-12-07T00:20:40;-0.10;99.90
10826;DHT22;5466;55.898;14.094;2023-12-07T00:22:41;-0.10;99.90
10826;DHT22;5466;55.898;14.094;2023-12-07T00:24:42;-0.10;99.90
10826;DHT22;5466;55.898;14.094;2023-12-07T00:26:42;-0.10;99.90
10826;DHT22;5466;55.898;14.094;2023-12-07T00:28:43;-0.10;99.90
10826;DHT22;5466;55.898;14.094;2023-12-07T00:30:43;-0.10;99.90
10826;DHT22;5466;55.898;14.094;2023-12-07T00:32:44;-0.10;99.90
10826;DHT22;5466;55.898;14.094;2023-12-07T00:34:46;-0.20;99.90
10826;DHT22;5466;55.898;14.094;2023-12-07T00:36:47;-0.20;99.90
10826;DHT22;5466;55.898;14.094;2023-12-07T00:38:47;-0.20;99.90
10826;DHT22;5466;55.898;14.094;2023-12-07T00:40:48;-0.20;99.90
10826;DHT22;5466;55.898;14.094;2023-12-07T00:42:49;-0.20;99.90
10826;DHT22;5466;55.898;14.094;2023-12-07T00:44:49;-0.20;99.90
10826;DHT22;5466;55.898;14.094;2023-12-07T00:46:50;-0.20;99.90
10826;DHT22;5466;55.898;14.094;2023-12-07T00:48:51;-0.20;99.90
10826;DHT22;5466;55.898;14.094;2023-12-07T00:50:51;-0.20;99.90
10826;DHT22;5466;55.898;14.094;2023-12-07T00:52:52;-0.20;99.90
10826;DHT22;5466;55.898;14.094;2023-12-07T00:54:52;-0.20;99.90
10826;DHT22;5466;55.898;14.094;2023-12-07T00:56:53;-0.20;99.90
10826;DHT22;5466;55.898;14.094;2023-12-07T00:58:54;-0.20;99.90
10826;DHT22;5466;55.898;14.094;2023-12-07T01:00:54;-0.20;99.90
10826;DHT22;5466;55.898;14.094;2023-12-07T01:02:55;-0.30;99.90
10826;DHT22;5466;55.898;14.094;2023-12-07T01:04:56;-0.30;99.90
10826;DHT22;5466;55.898;14.094;2023-12-07T01:06:56;-0.30;99.90
10826;DHT22;5466;55.898;14.094;2023-12-07T01:08:57;-0.30;99.90
10826;DHT22;5466;55.898;14.094;2023-12-07T01:10:58;-0.30;99.90
10826;DHT22;5466;55.898;14.094;2023-12-07T01:12:58;-0.30;99.90
10826;DHT22;5466;55.898;14.094;2023-12-07T01:14:59;-0.30;99.90
10826;DHT22;5466;55.898;14.094;2023-12-07T01:17:00;-0.30;99.90
10826;DHT22;5466;55.898;14.094;2023-12-07T01:19:00;-0.40;99.90
10826;DHT22;5466;55.898;14.094;2023-12-07T01:21:01;-0.40;99.90
10826;DHT22;5466;55.898;14.094;2023-12-07T01:23:01;-0.30;99.90
10826;DHT22;5466;55.898;14.094;2023-12-07T01:25:03;-0.40;99.90
10826;DHT22;5466;55.898;14.094;2023-12-07T01:27:04;-0.30;99.90
10826;DHT22;5466;55.898;14.094;2023-12-07T01:29:04;-0.40;99.90
10826;DHT22;5466;55.898;14.094;2023-12-07T01:31:05;-0.40;99.90
10826;DHT22;5466;55.898;14.094;2023-12-07T01:33:05;-0.40;99.90
10826;DHT22;5466;55.898;14.094;2023-12-07T01:35:07;-0.40;99.90
10826;DHT22;5466;55.898;14.094;2023-12-07T01:37:07;-0.40;99.90
10826;DHT22;5466;55.898;14.094;2023-12-07T01:39:08;-0.40;99.90
10826;DHT22;5466;55.898;14.094;2023-12-07T01:41:13;-0.30;99.90
10826;DHT22;5466;55.898;14.094;2023-12-07T01:43:14;-0.40;99.90
10826;DHT22;5466;55.898;14.094;2023-12-07T01:45:15;-0.40;99.90
10826;DHT22;5466;55.898;14.094;2023-12-07T01:47:15;-0.40;99.90
10826;DHT22;5466;55.898;14.094;2023-12-07T01:49:16;-0.40;99.90
10826;DHT22;5466;55.898;14.094;2023-12-07T01:51:18;-0.40;99.90
10826;DHT22;5466;55.898;14.094;2023-12-07T01:53:21;-0.40;99.90
10826;DHT22;5466;55.898;14.094;2023-12-07T01:55:24;-0.40;99.90
10826;DHT22;5466;55.898;14.094;2023-12-07T01:57:25;-0.40;99.90
10826;DHT22;5466;55.898;14.094;2023-12-07T01:59:25;-0.40;99.90
10826;DHT22;5466;55.898;14.094;2023-12-07T02:01:26;-0.40;99.90
10826;DHT22;5466;55.898;14.094;2023-12-07T02:03:28;-0.40;99.90
10826;DHT22;5466;55.898;14.094;2023-12-07T02:05:31;-0.40;99.90
10826;DHT22;5466;55.898;14.094;2023-12-07T02:07:33;-0.30;99.90
10826;DHT22;5466;55.898;14.094;2023-12-07T02:09:34;-0.40;99.90
10826;DHT22;5466;55.898;14.094;2023-12-07T02:11:35;-0.40;99.90
10826;DHT22;5466;55.898;14.094;2023-12-07T02:13:40;-0.30;99.90
10826;DHT22;5466;55.898;14.094;2023-12-07T02:15:41;-0.40;99.90
10826;DHT22;5466;55.898;14.094;2023-12-07T02:22:29;-0.40;99.90
10826;DHT22;5466;55.898;14.094;2023-12-07T02:24:34;-0.40;99.90
10826;DHT22;5466;55.898;14.094;2023-12-07T02:26:35;-0.40;99.90
10826;DHT22;5466;55.898;14.094;2023-12-07T02:28:37;-0.40;99.90
10826;DHT22;5466;55.898;14.094;2023-12-07T02:30:38;-0.40;99.90
10826;DHT22;5466;55.898;14.094;2023-12-07T02:32:40;-0.40;99.90
10826;DHT22;5466;55.898;14.094;2023-12-07T02:34:44;-0.40;99.90
10826;DHT22;5466;55.898;14.094;2023-12-07T02:36:46;-0.40;99.90
10826;DHT22;5466;55.898;14.094;2023-12-07T02:38:50;-0.40;99.90
10826;DHT22;5466;55.898;14.094;2023-12-07T02:40:53;-0.40;99.90
10826;DHT22;5466;55.898;14.094;2023-12-07T02:42:55;-0.40;99.90
10826;DHT22;5466;55.898;14.094;2023-12-07T02:44:56;-0.40;99.90
10826;DHT22;5466;55.898;14.094;2023-12-07T02:46:58;-0.40;99.90
10826;DHT22;5466;55.898;14.094;2023-12-07T02:48:59;-0.40;99.90
10826;DHT22;5466;55.898;14.094;2023-12-07T02:50:59;-0.40;99.90
10826;DHT22;5466;55.898;14.094;2023-12-07T02:53:00;-0.40;99.90
10826;DHT22;5466;55.898;14.094;2023-12-07T02:55:01;-0.40;99.90
10826;DHT22;5466;55.898;14.094;2023-12-07T02:57:01;-0.40;99.90
10826;DHT22;5466;55.898;14.094;2023-12-07T02:59:02;-0.40;99.90
10826;DHT22;5466;55.898;14.094;2023-12-07T03:01:03;-0.40;99.90
10826;DHT22;5466;55.898;14.094;2023-12-07T03:03:03;-0.40;99.90
10826;DHT22;5466;55.898;14.094;2023-12-07T03:05:05;-0.40;99.90
10826;DHT22;5466;55.898;14.094;2023-12-07T03:07:06;-0.40;99.90
10826;DHT22;5466;55.898;14.094;2023-12-07T03:09:07;-0.40;99.90
10826;DHT22;5466;55.898;14.094;2023-12-07T03:11:07;-0.40;99.90
10826;DHT22;5466;55.898;14.094;2023-12-07T03:13:08;-0.40;99.90
10826;DHT22;5466;55.898;14.094;2023-12-07T03:15:09;-0.40;99.90
10826;DHT22;5466;55.898;14.094;2023-12-07T03:17:10;-0.40;99.90
10826;DHT22;5466;55.898;14.094;2023-12-07T03:19:11;-0.40;99.90
10826;DHT22;5466;55.898;14.094;2023-12-07T03:21:12;-0.40;99.90
10826;DHT22;5466;55.898;14.094;2023-12-07T03:23:12;-0.40;99.90
10826;DHT22;5466;55.898;14.094;2023-12-07T03:25:13;-0.40;99.90
10826;DHT22;5466;55.898;14.094;2023-12-07T03:27:14;-0.40;99.90
10826;DHT22;5466;55.898;14.094;2023-12-07T03:29:14;-0.40;99.90
10826;DHT22;5466;55.898;14.094;2023-12-07T03:31:15;-0.40;99.90
10826;DHT22;5466;55.898;14.094;2023-12-07T03:33:15;-0.40;99.90
10826;DHT22;5466;55.898;14.094;2023-12-07T03:35:16;-0.40;99.90
10826;DHT22;5466;55.898;14.094;2023-12-07T03:37:17;-0.40;99.90
10826;DHT22;5466;55.898;14.094;2023-12-07T03:39:18;-0.40;99.90
10826;DHT22;5466;55.898;14.094;2023-12-07T03:41:19;-0.40;99.90
10826;DHT22;5466;55.898;14.094;2023-12-07T03:43:20;-0.40;99.90
10826;DHT22;5466;55.898;14.094;2023-12-07T03:45:21;-0.40;99.90
10826;DHT22;5466;55.898;14.094;2023-12-07T03:47:21;-0.40;99.90
10826;DHT22;5466;55.898;14.094;2023-12-07T03:49:22;-0.40;99.90
10826;DHT22;5466;55.898;14.094;2023-12-07T03:51:23;-0.40;99.90
10826;DHT22;5466;55.898;14.094;2023-12-07T03:53:23;-0.40;99.90
10826;DHT22;5466;55.898;14.094;2023-12-07T03:55:24;-0.40;99.90
10826;DHT22;5466;55.898;14.094;2023-12-07T03:57:25;-0.40;99.90
10826;DHT22;5466;55.898;14.094;2023-12-07T03:59:26;-0.40;99.90
10826;DHT22;5466;55.898;14.094;2023-12-07T04:01:28;-0.40;99.90
10826;DHT22;5466;55.898;14.094;2023-12-07T04:03:29;-0.40;99.90
10826;DHT22;5466;55.898;14.094;2023-12-07T04:05:30;-0.40;99.90
10826;DHT22;5466;55.898;14.094;2023-12-07T04:07:30;-0.40;99.90
10826;DHT22;5466;55.898;14.094;2023-12-07T04:09:31;-0.40;99.90
10826;DHT22;5466;55.898;14.094;2023-12-07T04:11:32;-0.40;99.90
10826;DHT22;5466;55.898;14.094;2023-12-07T04:13:32;-0.40;99.90
10826;DHT22;5466;55.898;14.094;2023-12-07T04:15:33;-0.40;99.90
10826;DHT22;5466;55.898;14.094;2023-12-07T04:17:33;-0.40;99.90
10826;DHT22;5466;55.898;14.094;2023-12-07T04:19:34;-0.50;99.90
10826;DHT22;5466;55.898;14.094;2023-12-07T04:21:35;-0.50;99.90
10826;DHT22;5466;55.898;14.094;2023-12-07T04:23:35;-0.40;99.90
10826;DHT22;5466;55.898;14.094;2023-12-07T04:25:36;-0.40;99.90
10826;DHT22;5466;55.898;14.094;2023-12-07T04:27:37;-0.40;99.90
10826;DHT22;5466;55.898;14.094;2023-12-07T04:29:37;-0.40;99.90
10826;DHT22;5466;55.898;14.094;2023-12-07T04:31:38;-0.40;99.90
10826;DHT22;5466;55.898;14.094;2023-12-07T04:33:39;-0.40;99.90
10826;DHT22;5466;55.898;14.094;2023-12-07T04:35:39;-0.40;99.90
10826;DHT22;5466;55.898;14.094;2023-12-07T04:37:40;-0.40;99.90
10826;DHT22;5466;55.898;14.094;2023-12-07T04:39:41;-0.40;99.90
10826;DHT22;5466;55.898;14.094;2023-12-07T04:41:41;-0.40;99.90
10826;DHT22;5466;55.898;14.094;2023-12-07T04:43:42;-0.40;99.90
10826;DHT22;5466;55.898;14.094;2023-12-07T04:45:42;-0.40;99.90
10826;DHT22;5466;55.898;14.094;2023-12-07T04:47:43;-0.50;99.90
10826;DHT22;5466;55.898;14.094;2023-12-07T04:49:44;-0.40;99.90
10826;DHT22;5466;55.898;14.094;2023-12-07T04:51:44;-0.40;99.90
10826;DHT22;5466;55.898;14.094;2023-12-07T04:53:47;-0.40;99.90
10826;DHT22;5466;55.898;14.094;2023-12-07T04:55:48;-0.40;99.90
10826;DHT22;5466;55.898;14.094;2023-12-07T04:57:50;-0.40;99.90
10826;DHT22;5466;55.898;14.094;2023-12-07T04:59:51;-0.50;99.90
10826;DHT22;5466;55.898;14.094;2023-12-07T05:01:51;-0.50;99.90
10826;DHT22;5466;55.898;14.094;2023-12-07T05:03:53;-0.40;99.90
10826;DHT22;5466;55.898;14.094;2023-12-07T05:05:53;-0.40;99.90
10826;DHT22;5466;55.898;14.094;2023-12-07T05:07:54;-0.40;99.90
10826;DHT22;5466;55.898;14.094;2023-12-07T05:09:55;-0.40;99.90
10826;DHT22;5466;55.898;14.094;2023-12-07T05:11:55;-0.40;99.90
10826;DHT22;5466;55.898;14.094;2023-12-07T05:13:56;-0.40;99.90
10826;DHT22;5466;55.898;14.094;2023-12-07T05:15:56;-0.40;99.90
10826;DHT22;5466;55.898;14.094;2023-12-07T05:17:57;-0.40;99.90
10826;DHT22;5466;55.898;14.094;2023-12-07T05:19:58;-0.40;99.90
10826;DHT22;5466;55.898;14.094;2023-12-07T05:21:58;-0.40;99.90
10826;DHT22;5466;55.898;14.094;2023-12-07T05:23:59;-0.40;99.90
10826;DHT22;5466;55.898;14.094;2023-12-07T05:26:00;-0.40;99.90
10826;DHT22;5466;55.898;14.094;2023-12-07T05:28:00;-0.40;99.90
10826;DHT22;5466;55.898;14.094;2023-12-07T05:30:01;-0.40;99.90
10826;DHT22;5466;55.898;14.094;2023-12-07T05:32:02;-0.40;99.90
10826;DHT22;5466;55.898;14.094;2023-12-07T05:34:03;-0.40;99.90
10826;DHT22;5466;55.898;14.094;2023-12-07T05:36:04;-0.40;99.90
10826;DHT22;5466;55.898;14.094;2023-12-07T05:38:05;-0.50;99.90
10826;DHT22;5466;55.898;14.094;2023-12-07T05:40:06;-0.50;99.90
10826;DHT22;5466;55.898;14.094;2023-12-07T05:42:07;-0.40;99.90
10826;DHT22;5466;55.898;14.094;2023-12-07T05:44:07;-0.40;99.90
10826;DHT22;5466;55.898;14.094;2023-12-07T05:46:08;-0.40;99.90
10826;DHT22;5466;55.898;14.094;2023-12-07T05:48:10;-0.40;99.90
10826;DHT22;5466;55.898;14.094;2023-12-07T05:50:11;-0.40;99.90
10826;DHT22;5466;55.898;14.094;2023-12-07T05:52:12;-0.40;99.90
10826;DHT22;5466;55.898;14.094;2023-12-07T05:54:12;-0.40;99.90
10826;DHT22;5466;55.898;14.094;2023-12-07T05:56:20;-0.40;99.90
10826;DHT22;5466;55.898;14.094;2023-12-07T05:58:21;-0.40;99.90
10826;DHT22;5466;55.898;14.094;2023-12-07T06:00:22;-0.40;99.90
10826;DHT22;5466;55.898;14.094;2023-12-07T06:02:22;-0.40;99.90
10826;DHT22;5466;55.898;14.094;2023-12-07T06:04:23;-0.40;99.90
10826;DHT22;5466;55.898;14.094;2023-12-07T06:06:24;-0.40;99.90
10826;DHT22;5466;55.898;14.094;2023-12-07T06:08:24;-0.40;99.90
10826;DHT22;5466;55.898;14.094;2023-12-07T06:10:25;-0.40;99.90
10826;DHT22;5466;55.898;14.094;2023-12-07T06:12:25;-0.40;99.90
10826;DHT22;5466;55.898;14.094;2023-12-07T06:14:26;-0.40;99.90
10826;DHT22;5466;55.898;14.094;2023-12-07T06:16:27;-0.40;99.90
10826;DHT22;5466;55.898;14.094;2023-12-07T06:18:27;-0.40;99.90
10826;DHT22;5466;55.898;14.094;2023-12-07T06:20:28;-0.40;99.90
10826;DHT22;5466;55.898;14.094;2023-12-07T06:22:28;-0.40;99.90
10826;DHT22;5466;55.898;14.094;2023-12-07T06:24:29;-0.40;99.90
10826;DHT22;5466;55.898;14.094;2023-12-07T06:26:30;-0.40;99.90
10826;DHT22;5466;55.898;14.094;2023-12-07T06:28:31;-0.40;99.90
10826;DHT22;5466;55.898;14.094;2023-12-07T06:30:32;-0.40;99.90
10826;DHT22;5466;55.898;14.094;2023-12-07T06:32:33;-0.40;99.90
10826;DHT22;5466;55.898;14.094;2023-12-07T06:34:39;-0.40;99.90
10826;DHT22;5466;55.898;14.094;2023-12-07T06:36:40;-0.40;99.90
10826;DHT22;5466;55.898;14.094;2023-12-07T06:38:41;-0.40;99.90
10826;DHT22;5466;55.898;14.094;2023-12-07T06:40:41;-0.40;99.90
10826;DHT22;5466;55.898;14.094;2023-12-07T06:42:43;-0.40;99.90
10826;DHT22;5466;55.898;14.094;2023-12-07T06:44:48;-0.40;99.90
10826;DHT22;5466;55.898;14.094;2023-12-07T06:46:51;-0.40;99.90
10826;DHT22;5466;55.898;14.094;2023-12-07T06:48:51;-0.40;99.90
10826;DHT22;5466;55.898;14.094;2023-12-07T06:50:52;-0.40;99.90
10826;DHT22;5466;55.898;14.094;2023-12-07T06:52:53;-0.40;99.90
10826;DHT22;5466;55.898;14.094;2023-12-07T06:54:53;-0.40;99.90
10826;DHT22;5466;55.898;14.094;2023-12-07T06:56:54;-0.50;99.90
10826;DHT22;5466;55.898;14.094;2023-12-07T06:58:55;-0.40;99.90
10826;DHT22;5466;55.898;14.094;2023-12-07T07:00:55;-0.40;99.90
10826;DHT22;5466;55.898;14.094;2023-12-07T07:02:56;-0.40;99.90
10826;DHT22;5466;55.898;14.094;2023-12-07T07:04:56;-0.40;99.90
10826;DHT22;5466;55.898;14.094;2023-12-07T07:06:57;-0.40;99.90
10826;DHT22;5466;55.898;14.094;2023-12-07T07:08:58;-0.40;99.90
10826;DHT22;5466;55.898;14.094;2023-12-07T07:10:59;-0.40;99.90
10826;DHT22;5466;55.898;14.094;2023-12-07T07:13:01;-0.30;99.90
10826;DHT22;5466;55.898;14.094;2023-12-07T07:15:07;-0.30;99.90
10826;DHT22;5466;55.898;14.094;2023-12-07T07:17:07;-0.40;99.90
10826;DHT22;5466;55.898;14.094;2023-12-07T07:19:08;-0.40;99.90
10826;DHT22;5466;55.898;14.094;2023-12-07T07:21:09;-0.40;99.90
10826;DHT22;5466;55.898;14.094;2023-12-07T07:23:10;-0.40;99.90
10826;DHT22;5466;55.898;14.094;2023-12-07T07:25:11;-0.40;99.90
10826;DHT22;5466;55.898;14.094;2023-12-07T07:27:11;-0.40;99.90
10826;DHT22;5466;55.898;14.094;2023-12-07T07:29:12;-0.40;99.90
10826;DHT22;5466;55.898;14.094;2023-12-07T07:31:12;-0.30;99.90
10826;DHT22;5466;55.898;14.094;2023-12-07T07:33:13;-0.30;99.90
10826;DHT22;5466;55.898;14.094;2023-12-07T07:35:14;-0.30;99.90
10826;DHT22;5466;55.898;14.094;2023-12-07T07:37:15;-0.30;99.90
10826;DHT22;5466;55.898;14.094;2023-12-07T07:39:15;-0.30;99.90
10826;DHT22;5466;55.898;14.094;2023-12-07T07:41:16;-0.30;99.90
10826;DHT22;5466;55.898;14.094;2023-12-07T07:43:16;-0.30;99.90
10826;DHT22;5466;55.898;14.094;2023-12-07T07:45:17;-0.30;99.90
10826;DHT22;5466;55.898;14.094;2023-12-07T07:47:17;-0.30;99.90
10826;DHT22;5466;55.898;14.094;2023-12-07T07:49:18;-0.30;99.90
10826;DHT22;5466;55.898;14.094;2023-12-07T07:51:19;-0.30;99.90
10826;DHT22;5466;55.898;14.094;2023-12-07T07:53:19;-0.30;99.90
10826;DHT22;5466;55.898;14.094;2023-12-07T07:55:20;-0.30;99.90
10826;DHT22;5466;55.898;14.094;2023-12-07T07:57:20;-0.20;99.90
10826;DHT22;5466;55.898;14.094;2023-12-07T07:59:21;-0.20;99.90
10826;DHT22;5466;55.898;14.094;2023-12-07T08:01:21;-0.30;99.90
10826;DHT22;5466;55.898;14.094;2023-12-07T08:03:22;-0.30;99.90
10826;DHT22;5466;55.898;14.094;2023-12-07T08:05:23;-0.20;99.90
10826;DHT22;5466;55.898;14.094;2023-12-07T08:07:23;-0.20;99.90
10826;DHT22;5466;55.898;14.094;2023-12-07T08:09:24;-0.20;99.90
10826;DHT22;5466;55.898;14.094;2023-12-07T08:11:24;-0.20;99.90
10826;DHT22;5466;55.898;14.094;2023-12-07T08:13:25;-0.20;99.90
10826;DHT22;5466;55.898;14.094;2023-12-07T08:15:26;-0.20;99.90
10826;DHT22;5466;55.898;14.094;2023-12-07T08:17:26;-0.20;99.90
10826;DHT22;5466;55.898;14.094;2023-12-07T08:19:27;-0.20;99.90
10826;DHT22;5466;55.898;14.094;2023-12-07T08:21:27;-0.20;99.90
10826;DHT22;5466;55.898;14.094;2023-12-07T08:23:30;-0.20;99.90
10826;DHT22;5466;55.898;14.094;2023-12-07T08:25:30;-0.10;99.90
10826;DHT22;5466;55.898;14.094;2023-12-07T08:27:32;-0.10;99.90
10826;DHT22;5466;55.898;14.094;2023-12-07T08:29:34;-0.10;99.90
10826;DHT22;5466;55.898;14.094;2023-12-07T08:31:34;-0.10;99.90
10826;DHT22;5466;55.898;14.094;2023-12-07T08:33:35;-0.20;99.90
10826;DHT22;5466;55.898;14.094;2023-12-07T08:35:36;-0.20;99.90
10826;DHT22;5466;55.898;14.094;2023-12-07T08:37:37;-0.20;99.90
10826;DHT22;5466;55.898;14.094;2023-12-07T08:39:39;-0.10;99.90
10826;DHT22;5466;55.898;14.094;2023-12-07T08:41:39;-0.10;99.90
10826;DHT22;5466;55.898;14.094;2023-12-07T08:43:40;-0.10;99.90
10826;DHT22;5466;55.898;14.094;2023-12-07T08:45:40;-0.10;99.90
10826;DHT22;5466;55.898;14.094;2023-12-07T08:47:41;-0.10;99.90
10826;DHT22;5466;55.898;14.094;2023-12-07T08:49:42;-0.10;99.90
10826;DHT22;5466;55.898;14.094;2023-12-07T08:51:43;0.00;99.90
10826;DHT22;5466;55.898;14.094;2023-12-07T08:53:44;0.00;99.90
10826;DHT22;5466;55.898;14.094;2023-12-07T08:55:45;0.00;99.90
10826;DHT22;5466;55.898;14.094;2023-12-07T08:57:46;0.00;99.90
10826;DHT22;5466;55.898;14.094;2023-12-07T08:59:46;0.00;99.90
10826;DHT22;5466;55.898;14.094;2023-12-07T09:01:47;0.10;99.90
10826;DHT22;5466;55.898;14.094;2023-12-07T09:03:48;0.10;99.90
10826;DHT22;5466;55.898;14.094;2023-12-07T09:05:48;0.10;99.90
10826;DHT22;5466;55.898;14.094;2023-12-07T09:07:49;0.20;99.90
10826;DHT22;5466;55.898;14.094;2023-12-07T09:09:49;0.20;99.90
10826;DHT22;5466;55.898;14.094;2023-12-07T09:11:50;0.20;99.90
10826;DHT22;5466;55.898;14.094;2023-12-07T09:13:51;0.30;99.90
10826;DHT22;5466;55.898;14.094;2023-12-07T09:15:51;0.20;99.90
10826;DHT22;5466;55.898;14.094;2023-12-07T09:17:52;0.20;99.90
10826;DHT22;5466;55.898;14.094;2023-12-07T09:19:52;0.30;99.90
10826;DHT22;5466;55.898;14.094;2023-12-07T09:21:54;0.30;99.90
10826;DHT22;5466;55.898;14.094;2023-12-07T09:23:54;0.30;99.90
10826;DHT22;5466;55.898;14.094;2023-12-07T09:25:55;0.30;99.90
10826;DHT22;5466;55.898;14.094;2023-12-07T09:27:55;0.30;99.90
10826;DHT22;5466;55.898;14.094;2023-12-07T09:29:56;0.30;99.90
10826;DHT22;5466;55.898;14.094;2023-12-07T09:31:57;0.20;99.90
10826;DHT22;5466;55.898;14.094;2023-12-07T09:33:58;0.20;99.90
10826;DHT22;5466;55.898;14.094;2023-12-07T09:35:59;0.30;99.90
10826;DHT22;5466;55.898;14.094;2023-12-07T09:38:00;0.30;99.90
10826;DHT22;5466;55.898;14.094;2023-12-07T09:40:01;0.30;99.90
10826;DHT22;5466;55.898;14.094;2023-12-07T09:42:01;0.30;99.90
10826;DHT22;5466;55.898;14.094;2023-12-07T09:44:02;0.40;99.90
10826;DHT22;5466;55.898;14.094;2023-12-07T09:46:04;0.30;99.90
10826;DHT22;5466;55.898;14.094;2023-12-07T09:48:05;0.40;99.90
10826;DHT22;5466;55.898;14.094;2023-12-07T09:50:08;0.40;99.90
10826;DHT22;5466;55.898;14.094;2023-12-07T09:52:10;0.50;99.90
10826;DHT22;5466;55.898;14.094;2023-12-07T09:54:12;0.50;99.90
10826;DHT22;5466;55.898;14.094;2023-12-07T09:56:13;0.50;99.90
10826;DHT22;5466;55.898;14.094;2023-12-07T09:58:14;0.60;99.90
10826;DHT22;5466;55.898;14.094;2023-12-07T10:00:15;0.60;99.90
10826;DHT22;5466;55.898;14.094;2023-12-07T10:02:16;0.70;99.90
10826;DHT22;5466;55.898;14.094;2023-12-07T10:04:21;0.70;99.90
10826;DHT22;5466;55.898;14.094;2023-12-07T10:06:23;0.70;99.90
10826;DHT22;5466;55.898;14.094;2023-12-07T10:08:31;0.70;99.90
10826;DHT22;5466;55.898;14.094;2023-12-07T10:10:32;0.70;99.90
10826;DHT22;5466;55.898;14.094;2023-12-07T10:12:34;0.70;99.90
10826;DHT22;5466;55.898;14.094;2023-12-07T10:14:35;0.70;99.90
10826;DHT22;5466;55.898;14.094;2023-12-07T10:16:36;0.70;99.90
10826;DHT22;5466;55.898;14.094;2023-12-07T10:18:37;0.70;99.90
10826;DHT22;5466;55.898;14.094;2023-12-07T10:20:45;0.70;99.90
10826;DHT22;5466;55.898;14.094;2023-12-07T10:22:46;0.70;99.90
10826;DHT22;5466;55.898;14.094;2023-12-07T10:24:47;0.60;99.90
10826;DHT22;5466;55.898;14.094;2023-12-07T10:26:49;0.60;99.90
10826;DHT22;5466;55.898;14.094;2023-12-07T10:28:50;0.60;99.90
10826;DHT22;5466;55.898;14.094;2023-12-07T10:30:54;0.60;99.90
10826;DHT22;5466;55.898;14.094;2023-12-07T10:32:55;0.60;99.90
10826;DHT22;5466;55.898;14.094;2023-12-07T10:34:55;0.60;99.90
10826;DHT22;5466;55.898;14.094;2023-12-07T10:36:58;0.60;99.90
10826;DHT22;5466;55.898;14.094;2023-12-07T10:38:59;0.50;99.90
10826;DHT22;5466;55.898;14.094;2023-12-07T10:41:05;0.50;99.90
10826;DHT22;5466;55.898;14.094;2023-12-07T10:43:09;0.50;99.90
10826;DHT22;5466;55.898;14.094;2023-12-07T10:45:10;0.50;99.90
10826;DHT22;5466;55.898;14.094;2023-12-07T10:47:15;0.50;99.90
10826;DHT22;5466;55.898;14.094;2023-12-07T10:49:19;0.50;99.90
10826;DHT22;5466;55.898;14.094;2023-12-07T10:51:37;0.50;99.90
10826;DHT22;5466;55.898;14.094;2023-12-07T10:53:43;0.50;99.90
10826;DHT22;5466;55.898;14.094;2023-12-07T10:55:55;0.50;99.90
10826;DHT22;5466;55.898;14.094;2023-12-07T10:57:56;0.40;99.90
10826;DHT22;5466;55.898;14.094;2023-12-07T11:00:01;0.40;99.90
10826;DHT22;5466;55.898;14.094;2023-12-07T11:02:02;0.50;99.90
10826;DHT22;5466;55.898;14.094;2023-12-07T11:04:03;0.50;99.90
10826;DHT22;5466;55.898;14.094;2023-12-07T11:06:06;0.50;99.90
10826;DHT22;5466;55.898;14.094;2023-12-07T11:08:09;0.40;99.90
10826;DHT22;5466;55.898;14.094;2023-12-07T11:10:18;0.40;99.90
10826;DHT22;5466;55.898;14.094;2023-12-07T11:12:31;0.40;99.90
10826;DHT22;5466;55.898;14.094;2023-12-07T11:14:33;0.40;99.90
10826;DHT22;5466;55.898;14.094;2023-12-07T11:16:40;0.50;99.90
10826;DHT22;5466;55.898;14.094;2023-12-07T11:18:41;0.50;99.90
10826;DHT22;5466;55.898;14.094;2023-12-07T11:20:45;0.50;99.90
10826;DHT22;5466;55.898;14.094;2023-12-07T11:22:47;0.50;99.90
10826;DHT22;5466;55.898;14.094;2023-12-07T11:24:58;0.50;99.90
10826;DHT22;5466;55.898;14.094;2023-12-07T11:27:03;0.50;99.90
10826;DHT22;5466;55.898;14.094;2023-12-07T11:29:03;0.50;99.90
10826;DHT22;5466;55.898;14.094;2023-12-07T11:31:06;0.60;99.90
10826;DHT22;5466;55.898;14.094;2023-12-07T11:33:09;0.60;99.90
10826;DHT22;5466;55.898;14.094;2023-12-07T11:35:12;0.70;99.90
10826;DHT22;5466;55.898;14.094;2023-12-07T11:37:16;0.60;99.90
10826;DHT22;5466;55.898;14.094;2023-12-07T11:39:20;0.60;99.90
10826;DHT22;5466;55.898;14.094;2023-12-07T11:41:24;0.60;99.90
10826;DHT22;5466;55.898;14.094;2023-12-07T11:45:41;0.60;99.90
10826;DHT22;5466;55.898;14.094;2023-12-07T11:47:42;0.50;99.90
10826;DHT22;5466;55.898;14.094;2023-12-07T11:49:48;0.50;99.90
10826;DHT22;5466;55.898;14.094;2023-12-07T11:51:49;0.50;99.90
10826;DHT22;5466;55.898;14.094;2023-12-07T11:53:50;0.60;99.90
10826;DHT22;5466;55.898;14.094;2023-12-07T11:55:52;0.60;99.90
10826;DHT22;5466;55.898;14.094;2023-12-07T11:57:54;0.60;99.90
10826;DHT22;5466;55.898;14.094;2023-12-07T11:59:54;0.60;99.90
10826;DHT22;5466;55.898;14.094;2023-12-07T12:01:55;0.60;99.90
10826;DHT22;5466;55.898;14.094;2023-12-07T12:03:59;0.60;99.90
10826;DHT22;5466;55.898;14.094;2023-12-07T12:06:01;0.60;99.90
10826;DHT22;5466;55.898;14.094;2023-12-07T12:08:02;0.60;99.90
10826;DHT22;5466;55.898;14.094;2023-12-07T12:10:03;0.70;99.90
10826;DHT22;5466;55.898;14.094;2023-12-07T12:12:04;0.70;99.90
10826;DHT22;5466;55.898;14.094;2023-12-07T12:14:08;0.70;99.90
10826;DHT22;5466;55.898;14.094;2023-12-07T12:16:09;0.70;99.90
10826;DHT22;5466;55.898;14.094;2023-12-07T12:18:09;0.70;99.90
10826;DHT22;5466;55.898;14.094;2023-12-07T12:20:10;0.70;99.90
10826;DHT22;5466;55.898;14.094;2023-12-07T12:22:11;0.60;99.90
10826;DHT22;5466;55.898;14.094;2023-12-07T12:24:12;0.70;99.90
10826;DHT22;5466;55.898;14.094;2023-12-07T12:26:12;0.70;99.90
10826;DHT22;5466;55.898;14.094;2023-12-07T12:28:16;0.70;99.90
10826;DHT22;5466;55.898;14.094;2023-12-07T12:30:18;0.60;99.90
10826;DHT22;5466;55.898;14.094;2023-12-07T12:32:19;0.60;99.90
10826;DHT22;5466;55.898;14.094;2023-12-07T12:34:21;0.70;99.90
10826;DHT22;5466;55.898;14.094;2023-12-07T12:36:22;0.60;99.90
10826;DHT22;5466;55.898;14.094;2023-12-07T12:38:23;0.60;99.90
10826;DHT22;5466;55.898;14.094;2023-12-07T12:40:27;0.60;99.90
10826;DHT22;5466;55.898;14.094;2023-12-07T12:42:30;0.60;99.90
10826;DHT22;5466;55.898;14.094;2023-12-07T12:44:31;0.60;99.90
10826;DHT22;5466;55.898;14.094;2023-12-07T12:46:32;0.60;99.90
10826;DHT22;5466;55.898;14.094;2023-12-07T12:48:34;0.70;99.90
10826;DHT22;5466;55.898;14.094;2023-12-07T12:50:39;0.60;99.90
10826;DHT22;5466;55.898;14.094;2023-12-07T12:52:40;0.60;99.90
10826;DHT22;5466;55.898;14.094;2023-12-07T12:54:43;0.60;99.90
10826;DHT22;5466;55.898;14.094;2023-12-07T12:56:44;0.60;99.90